Terminal Aerodrome Forecast
Issued by NWS

Current Version | Previous Version | Graphics & Text | Print | Product List | Glossary On
Versions: 1 2 3 4 5 6 7 8 9 10 11 12 13 14 15 16 17 18 19 20 21 22 23 24 25 26 27 28
000
FTUS41 KILN 260700 AAA
TAFLCK
TAF AMD
KLCK 260744Z 2608/2706 01011G19KT 3SM -SN SCT009 OVC012
      TEMPO 2608/2611 2SM -SN
     FM261300 33011KT P6SM OVC015
     FM262300 33005KT P6SM OVC015=

USA.gov is the U.S. government's official web portal to all federal, state and local government web resources and services.